Time;durP1;ratioP1;P1;durP2;ratioP2;P2;SDS_P1;SDS_P2;PMS_P1;PMS_P2;Temp;Humidity;BMP_temperature;BMP_pressure;BME280_temperature;BME280_humidity;BME280_pressure;Samples;Min_cycle;Max_cycle;Signal;HPM_P1;HPM_P2
2022/06/21 00:00:32;;;;;;;;;;;;;;;15.12;67.88;94861.38;6245876;28;20380;-67
2022/06/21 00:03:36;;;;;;;;;;;;;;;15.18;67.60;94868.59;6245674;28;19927;-67
2022/06/21 00:06:39;;;;;;;;;;;;;;;15.16;67.35;94873.25;6248640;28;19928;-67
2022/06/21 00:09:42;;;;;;;;;;;;;;;15.06;67.43;94872.66;6250731;28;19921;-67
2022/06/21 00:12:44;;;;;;;;;;;;;;;15.01;67.67;94848.53;6250497;28;19921;-67
2022/06/21 00:15:50;;;;;;;;;;;;;;;14.94;67.68;94858.97;6250652;28;19921;-68
2022/06/21 00:18:52;;;;;;;;;;;;;;;14.90;67.79;94863.00;6250971;28;20347;-68
2022/06/21 00:21:53;;;;;;;;;;;;;;;14.86;66.77;94871.44;6250723;28;19921;-68
2022/06/21 00:24:56;;;;;;;;;;;;;;;14.83;67.43;94872.63;6250177;28;19921;-67
2022/06/21 00:27:59;;;;;;;;;;;;;;;14.75;67.50;94881.47;6251052;28;19928;-67
2022/06/21 00:31:01;;;;;;;;;;;;;;;14.66;67.09;94887.78;6250501;28;19921;-67
2022/06/21 00:34:05;;;;;;;;;;;;;;;14.64;66.22;94895.06;6250439;28;19928;-67
2022/06/21 00:37:09;;;;;;;;;;;;;;;14.58;65.77;94901.88;6250002;28;19921;-68
2022/06/21 00:40:19;;;;;;;;;;;;;;;14.54;65.18;94905.03;6249951;28;19928;-67
2022/06/21 00:43:27;;;;;;;;;;;;;;;14.56;64.51;94918.94;6249855;28;19924;-67
2022/06/21 00:46:42;;;;;;;;;;;;;;;14.69;63.34;94921.88;6249842;28;19921;-67
2022/06/21 00:50:00;;;;;;;;;;;;;;;14.78;62.87;94910.22;6249920;28;20299;-67
2022/06/21 00:53:07;;;;;;;;;;;;;;;14.76;62.77;94925.44;6249620;28;20289;-67
2022/06/21 00:56:14;;;;;;;;;;;;;;;14.59;63.67;94939.75;6250265;28;19921;-68
2022/06/21 00:59:25;;;;;;;;;;;;;;;14.27;64.91;94914.22;6250112;28;19921;-67
2022/06/21 01:02:35;;;;;;;;;;;;;;;14.03;66.43;94923.03;6249454;28;19924;-67
2022/06/21 01:05:42;;;;;;;;;;;;;;;13.73;67.78;94933.31;6249305;28;19921;-67
2022/06/21 01:08:51;;;;;;;;;;;;;;;13.42;68.91;94922.59;6249451;28;19968;-67
2022/06/21 01:11:58;;;;;;;;;;;;;;;13.23;69.62;94931.63;6249294;28;19995;-67
2022/06/21 01:15:05;;;;;;;;;;;;;;;13.18;70.13;94928.63;6248148;28;20370;-67
2022/06/21 01:18:08;;;;;;;;;;;;;;;13.21;70.08;94928.31;6248795;28;19921;-67
2022/06/21 01:21:13;;;;;;;;;;;;;;;13.41;70.05;94929.66;6249524;28;19925;-68
2022/06/21 01:24:23;;;;;;;;;;;;;;;13.75;69.13;94933.97;6249029;28;19921;-67
2022/06/21 01:27:28;;;;;;;;;;;;;;;14.06;68.27;94927.97;6248815;28;19921;-68
2022/06/21 01:30:33;;;;;;;;;;;;;;;14.08;68.06;94929.47;6248783;28;20381;-67
2022/06/21 01:33:39;;;;;;;;;;;;;;;14.05;67.81;94910.47;6248944;28;20316;-67
2022/06/21 01:36:44;;;;;;;;;;;;;;;13.93;68.09;94917.94;6248416;28;19921;-68
2022/06/21 01:39:50;;;;;;;;;;;;;;;13.86;68.09;94899.25;6248875;28;19924;-68
2022/06/21 01:42:54;;;;;;;;;;;;;;;13.87;67.87;94898.28;6248414;28;20400;-67
2022/06/21 01:45:57;;;;;;;;;;;;;;;13.89;67.80;94880.41;6248459;28;19921;-67
2022/06/21 01:49:05;;;;;;;;;;;;;;;13.87;67.80;94887.69;6248362;28;19928;-67
2022/06/21 01:52:12;;;;;;;;;;;;;;;14.01;67.18;94888.84;6248153;28;19927;-67
2022/06/21 01:55:20;;;;;;;;;;;;;;;14.14;66.60;94893.56;6248360;28;20075;-68
2022/06/21 01:58:26;;;;;;;;;;;;;;;14.14;66.13;94889.09;6248232;28;19921;-68
2022/06/21 02:01:33;;;;;;;;;;;;;;;14.17;65.92;94898.53;6248742;28;19927;-68
2022/06/21 02:04:57;;;;;;;;;;;;;;;14.19;65.87;94899.19;6248189;28;19920;-67
2022/06/21 02:08:05;;;;;;;;;;;;;;;14.18;65.49;94905.44;6248066;28;19921;-68
2022/06/21 02:11:09;;;;;;;;;;;;;;;14.24;65.04;94911.88;6248162;28;19921;-68
2022/06/21 02:14:28;;;;;;;;;;;;;;;14.30;64.61;94917.34;6247859;28;20308;-67
2022/06/21 02:17:39;;;;;;;;;;;;;;;14.30;64.37;94917.34;6247616;28;19975;-68
2022/06/21 02:20:59;;;;;;;;;;;;;;;14.40;64.00;94917.13;6247932;28;20363;-67
2022/06/21 02:24:00;;;;;;;;;;;;;;;14.43;62.98;94924.72;6248161;28;19921;-67
2022/06/21 02:27:01;;;;;;;;;;;;;;;14.49;62.15;94918.78;6247969;28;19927;-67
2022/06/21 02:30:11;;;;;;;;;;;;;;;14.46;62.26;94916.44;6246928;28;19927;-67
2022/06/21 02:33:23;;;;;;;;;;;;;;;14.52;62.05;94914.97;6248189;28;19927;-67
2022/06/21 02:36:29;;;;;;;;;;;;;;;14.50;60.29;94924.88;6248625;28;20020;-66
2022/06/21 02:39:33;;;;;;;;;;;;;;;14.66;60.04;94927.47;6247494;28;19921;-67
2022/06/21 02:42:39;;;;;;;;;;;;;;;14.89;59.78;94924.91;6247090;28;19921;-67
2022/06/21 02:45:52;;;;;;;;;;;;;;;15.34;58.93;94927.75;6246800;28;19917;-67
2022/06/21 02:49:02;;;;;;;;;;;;;;;15.41;57.39;94937.50;6246877;28;19942;-67
2022/06/21 02:52:10;;;;;;;;;;;;;;;15.23;58.42;94943.09;6247370;28;19925;-67
2022/06/21 02:55:32;;;;;;;;;;;;;;;14.97;58.08;94942.56;6245883;28;19921;-67
2022/06/21 02:58:35;;;;;;;;;;;;;;;14.78;59.03;94952.59;6246921;28;19963;-67
2022/06/21 03:01:41;;;;;;;;;;;;;;;14.94;57.35;94954.31;6246934;28;19921;-67
2022/06/21 03:04:44;;;;;;;;;;;;;;;14.84;57.54;94939.66;6246747;28;19921;-66
2022/06/21 03:07:53;;;;;;;;;;;;;;;14.90;57.69;94946.91;6246617;28;19925;-67
2022/06/21 03:10:55;;;;;;;;;;;;;;;14.99;56.58;94940.56;6246724;28;19967;-67
2022/06/21 03:14:00;;;;;;;;;;;;;;;14.82;56.54;94951.22;6247052;28;19943;-68
2022/06/21 03:17:03;;;;;;;;;;;;;;;14.79;56.55;94950.75;6246763;28;19928;-68
2022/06/21 03:20:09;;;;;;;;;;;;;;;14.75;56.59;94954.75;6245192;28;19921;-67
2022/06/21 03:23:12;;;;;;;;;;;;;;;14.73;56.59;94941.69;6245812;28;20148;-67
2022/06/21 03:26:14;;;;;;;;;;;;;;;14.76;56.46;94940.53;6246105;28;19944;-67
2022/06/21 03:29:20;;;;;;;;;;;;;;;14.85;55.96;94936.00;6246056;28;20381;-68
2022/06/21 03:32:24;;;;;;;;;;;;;;;14.94;54.21;94942.91;6246239;28;20009;-67
2022/06/21 03:35:31;;;;;;;;;;;;;;;14.94;53.20;94934.97;6244692;28;19932;-67
2022/06/21 03:38:36;;;;;;;;;;;;;;;15.00;53.15;94931.63;6245952;28;19928;-68
2022/06/21 03:41:44;;;;;;;;;;;;;;;15.04;52.75;94932.94;6246300;28;19920;-67
2022/06/21 03:45:05;;;;;;;;;;;;;;;15.12;52.09;94948.78;6246444;28;19920;-68
2022/06/21 03:48:15;;;;;;;;;;;;;;;15.20;51.11;94969.06;6245477;28;19929;-68
2022/06/21 03:51:27;;;;;;;;;;;;;;;15.22;50.77;94957.31;6245522;28;20459;-67
2022/06/21 03:54:47;;;;;;;;;;;;;;;15.30;49.32;94953.78;6246065;28;19925;-68
2022/06/21 03:57:55;;;;;;;;;;;;;;;15.42;49.67;94939.13;6245024;28;20308;-68
2022/06/21 04:01:03;;;;;;;;;;;;;;;15.56;49.02;94929.59;6246061;28;19964;-67
2022/06/21 04:04:06;;;;;;;;;;;;;;;15.61;49.25;94929.06;6245573;28;19917;-67
2022/06/21 04:07:10;;;;;;;;;;;;;;;15.67;48.88;94933.66;6245954;28;19966;-68
2022/06/21 04:10:29;;;;;;;;;;;;;;;15.58;49.47;94940.84;6246194;28;19928;-67
2022/06/21 04:13:36;;;;;;;;;;;;;;;15.77;48.10;94941.38;6245920;28;19921;-67
2022/06/21 04:16:55;;;;;;;;;;;;;;;15.64;48.20;94960.53;6245588;28;19920;-68
2022/06/21 04:20:11;;;;;;;;;;;;;;;15.64;47.90;94956.03;6245795;28;19921;-67
2022/06/21 04:23:15;;;;;;;;;;;;;;;15.73;47.61;94956.00;6246022;28;19921;-68
2022/06/21 04:26:24;;;;;;;;;;;;;;;15.80;47.28;94960.44;6245701;28;19924;-67
2022/06/21 04:29:25;;;;;;;;;;;;;;;15.87;46.84;94949.91;6245806;28;20102;-68
2022/06/21 04:32:29;;;;;;;;;;;;;;;15.87;45.87;94971.13;6245818;28;19931;-67
2022/06/21 04:35:33;;;;;;;;;;;;;;;15.88;45.98;94963.03;6245228;28;19924;-67
2022/06/21 04:38:41;;;;;;;;;;;;;;;16.03;45.12;94965.69;6245072;28;19921;-68
2022/06/21 04:41:47;;;;;;;;;;;;;;;16.22;44.98;94974.13;6245057;28;19924;-68
2022/06/21 04:44:59;;;;;;;;;;;;;;;16.38;44.16;94980.09;6245409;28;20007;-67
2022/06/21 04:48:02;;;;;;;;;;;;;;;17.42;41.58;94972.06;6245746;28;19951;-68
2022/06/21 04:51:08;;;;;;;;;;;;;;;19.52;38.15;94996.09;6245603;28;20014;-67
2022/06/21 04:54:18;;;;;;;;;;;;;;;21.78;35.05;94962.13;6249592;28;20304;-67
2022/06/21 04:57:20;;;;;;;;;;;;;;;24.00;32.00;94970.13;6250295;28;20225;-68
2022/06/21 05:00:22;;;;;;;;;;;;;;;26.25;30.45;94988.47;6250255;28;19921;-68
2022/06/21 05:03:29;;;;;;;;;;;;;;;28.04;27.25;94985.59;6249238;28;19932;-68
2022/06/21 05:06:33;;;;;;;;;;;;;;;29.14;24.02;94984.34;6249060;28;19924;-67
2022/06/21 05:09:36;;;;;;;;;;;;;;;30.84;23.48;94988.09;6249035;28;19928;-67
2022/06/21 05:12:44;;;;;;;;;;;;;;;31.61;23.48;94993.38;6249416;28;19917;-68
2022/06/21 05:15:45;;;;;;;;;;;;;;;32.93;19.96;95001.84;6249694;28;19921;-67
2022/06/21 05:18:56;;;;;;;;;;;;;;;33.00;20.68;94988.72;6249011;28;20377;-66
2022/06/21 05:22:04;;;;;;;;;;;;;;;34.70;18.89;94990.97;6249041;28;19921;-66
2022/06/21 05:25:34;;;;;;;;;;;;;;;35.75;16.57;95020.56;6248478;28;19925;-67
2022/06/21 05:28:41;;;;;;;;;;;;;;;36.27;15.57;95001.19;6248443;28;19929;-67
2022/06/21 05:31:48;;;;;;;;;;;;;;;37.21;15.45;94988.53;6248912;28;20396;-67
2022/06/21 05:34:57;;;;;;;;;;;;;;;37.46;14.10;94979.63;6248537;28;19916;-67
2022/06/21 05:38:01;;;;;;;;;;;;;;;38.11;14.11;95002.00;6248637;28;19921;-67
2022/06/21 05:41:29;;;;;;;;;;;;;;;37.47;15.13;94981.22;6248748;28;20002;-67
2022/06/21 05:44:36;;;;;;;;;;;;;;;38.14;13.40;95001.34;6248363;28;19921;-67
2022/06/21 05:47:39;;;;;;;;;;;;;;;38.01;13.05;94983.88;6248465;28;19921;-67
2022/06/21 05:50:43;;;;;;;;;;;;;;;39.88;13.00;94987.38;6248072;28;19921;-68
2022/06/21 05:53:48;;;;;;;;;;;;;;;40.87;11.59;95017.19;6249112;28;19920;-67
2022/06/21 05:56:50;;;;;;;;;;;;;;;39.87;11.88;94975.56;6248115;28;19921;-68
2022/06/21 05:59:54;;;;;;;;;;;;;;;40.20;12.09;94985.09;6247918;28;19928;-67
2022/06/21 06:03:20;;;;;;;;;;;;;;;40.53;12.50;94993.44;6247352;28;19921;-68
2022/06/21 06:06:25;;;;;;;;;;;;;;;40.21;11.72;94989.47;6246794;28;19921;-68
2022/06/21 06:09:40;;;;;;;;;;;;;;;39.96;12.31;95003.84;6247859;28;19924;-67
2022/06/21 06:12:48;;;;;;;;;;;;;;;36.71;13.67;94981.25;6247756;28;19921;-67
2022/06/21 06:15:52;;;;;;;;;;;;;;;36.87;14.62;94968.00;6247832;28;19928;-67
2022/06/21 06:18:59;;;;;;;;;;;;;;;38.96;13.08;94963.06;6248203;28;19972;-67
2022/06/21 06:22:06;;;;;;;;;;;;;;;40.83;11.54;94966.63;6247751;28;19921;-67
2022/06/21 06:25:12;;;;;;;;;;;;;;;40.58;11.63;94971.19;6247744;28;19921;-67
2022/06/21 06:28:25;;;;;;;;;;;;;;;40.55;11.63;94978.19;6247729;28;19925;-67
2022/06/21 06:31:39;;;;;;;;;;;;;;;41.59;10.90;94992.94;6247422;28;20082;-67
2022/06/21 06:34:45;;;;;;;;;;;;;;;41.47;10.74;94987.34;6247229;28;20406;-67
2022/06/21 06:37:49;;;;;;;;;;;;;;;40.75;11.45;94973.00;6246910;28;19921;-67
2022/06/21 06:40:57;;;;;;;;;;;;;;;40.81;11.15;94996.47;6246972;28;20024;-67
2022/06/21 06:44:06;;;;;;;;;;;;;;;41.38;11.08;94986.66;6247001;28;19916;-67
2022/06/21 06:47:13;;;;;;;;;;;;;;;41.10;10.87;94997.53;6245396;28;19921;-66
2022/06/21 06:50:14;;;;;;;;;;;;;;;40.78;10.78;94991.63;6246573;28;19928;-67
2022/06/21 06:53:23;;;;;;;;;;;;;;;41.09;10.90;94973.84;6246520;28;20343;-67
2022/06/21 06:56:32;;;;;;;;;;;;;;;41.21;10.74;94990.44;6246783;28;20360;-67
2022/06/21 06:59:36;;;;;;;;;;;;;;;41.22;10.59;94978.22;6262381;28;19928;-67
2022/06/21 07:02:39;;;;;;;;;;;;;;;40.68;10.55;94981.00;6245437;28;19921;-67
2022/06/21 07:06:02;;;;;;;;;;;;;;;41.26;10.36;94990.22;6246358;28;19920;-67
2022/06/21 07:09:13;;;;;;;;;;;;;;;42.42;9.74;94984.53;6246200;28;19920;-67
2022/06/21 07:12:15;;;;;;;;;;;;;;;42.88;9.95;94996.16;6246257;28;19928;-67
2022/06/21 07:15:39;;;;;;;;;;;;;;;42.91;10.00;95004.53;6246136;28;19948;-68
2022/06/21 07:18:45;;;;;;;;;;;;;;;42.08;10.03;94997.69;6246177;28;19948;-67
2022/06/21 07:21:49;;;;;;;;;;;;;;;40.92;10.55;94977.56;6246201;28;19943;-67
2022/06/21 07:24:56;;;;;;;;;;;;;;;40.90;10.28;94971.56;6245930;28;19921;-67
2022/06/21 07:28:01;;;;;;;;;;;;;;;41.55;10.21;94982.94;6244820;28;20300;-67
2022/06/21 07:31:10;;;;;;;;;;;;;;;41.59;10.07;94973.63;6246086;28;19921;-67
2022/06/21 07:34:28;;;;;;;;;;;;;;;42.06;9.61;94977.88;6245878;28;20059;-67
2022/06/21 07:37:33;;;;;;;;;;;;;;;42.62;9.68;94983.53;6246171;28;20067;-68
2022/06/21 07:40:39;;;;;;;;;;;;;;;41.15;10.34;94989.03;6245794;28;19921;-66
2022/06/21 07:43:46;;;;;;;;;;;;;;;41.65;10.45;94999.06;6245718;28;19921;-68
2022/06/21 07:46:54;;;;;;;;;;;;;;;40.41;11.03;94999.69;6245637;28;19921;-67
2022/06/21 07:50:04;;;;;;;;;;;;;;;38.61;12.13;94979.56;6245817;28;19920;-68
2022/06/21 07:53:16;;;;;;;;;;;;;;;36.99;13.31;94998.38;6245334;28;20293;-67
2022/06/21 07:56:23;;;;;;;;;;;;;;;35.27;14.69;94972.53;6246186;28;19931;-66
2022/06/21 07:59:29;;;;;;;;;;;;;;;36.67;13.87;94996.72;6245458;28;19921;-68
2022/06/21 08:09:27;;;;;;;;;;;;;;;39.99;11.67;94994.09;6245677;28;20301;-67
2022/06/21 08:12:30;;;;;;;;;;;;;;;38.95;12.10;95020.00;6245989;28;19971;-67
2022/06/21 08:15:42;;;;;;;;;;;;;;;38.05;12.57;95003.25;6245704;28;19920;-67
2022/06/21 08:19:08;;;;;;;;;;;;;;;37.22;13.32;94990.94;6243598;28;19924;-67
2022/06/21 08:22:31;;;;;;;;;;;;;;;34.73;14.96;94984.09;6245173;28;19921;-67
2022/06/21 08:25:32;;;;;;;;;;;;;;;36.56;13.72;94990.66;6245502;28;19920;-68
2022/06/21 08:28:35;;;;;;;;;;;;;;;37.50;13.29;94986.09;6249510;28;19998;-68
2022/06/21 08:31:41;;;;;;;;;;;;;;;38.59;12.59;94998.34;6250231;28;19924;-68
2022/06/21 08:34:47;;;;;;;;;;;;;;;38.95;12.30;95006.25;6250156;28;20006;-67
2022/06/21 08:37:52;;;;;;;;;;;;;;;39.21;12.11;95022.72;6249800;28;19920;-68
2022/06/21 08:40:53;;;;;;;;;;;;;;;38.05;12.72;95006.81;6250412;28;20296;-67
2022/06/21 08:43:56;;;;;;;;;;;;;;;34.86;14.97;95007.94;6249712;28;19921;-67
2022/06/21 08:47:06;;;;;;;;;;;;;;;31.81;17.93;94999.81;6249810;28;19928;-68
2022/06/21 08:50:25;;;;;;;;;;;;;;;31.03;18.69;94999.22;6250424;28;19943;-68
2022/06/21 08:53:45;;;;;;;;;;;;;;;30.14;19.05;95017.56;6249796;28;20357;-67
2022/06/21 08:57:10;;;;;;;;;;;;;;;28.77;20.72;95015.75;6249402;28;19921;-67
2022/06/21 09:00:26;;;;;;;;;;;;;;;27.63;22.11;95000.50;6249553;28;19921;-68
2022/06/21 09:03:30;;;;;;;;;;;;;;;26.57;23.51;94999.56;6249540;28;19925;-67
2022/06/21 09:06:37;;;;;;;;;;;;;;;25.64;24.28;94998.09;6249576;28;19921;-69
2022/06/21 09:09:57;;;;;;;;;;;;;;;25.40;25.08;95006.25;6249669;28;19936;-67
2022/06/21 09:13:16;;;;;;;;;;;;;;;26.27;24.72;95007.94;6248884;28;19928;-67
2022/06/21 09:16:27;;;;;;;;;;;;;;;27.31;23.48;95015.50;6249130;28;19921;-67
2022/06/21 09:19:34;;;;;;;;;;;;;;;26.36;24.09;95017.25;6249545;28;19921;-67
2022/06/21 09:22:41;;;;;;;;;;;;;;;25.41;25.26;95018.66;6249208;28;20308;-67
2022/06/21 09:26:02;;;;;;;;;;;;;;;24.53;26.40;95004.28;6249435;28;19921;-67
2022/06/21 09:29:11;;;;;;;;;;;;;;;26.27;24.72;95032.22;6247356;28;19920;-67
2022/06/21 09:32:13;;;;;;;;;;;;;;;25.91;25.27;95020.75;6249092;28;19920;-67
2022/06/21 09:35:24;;;;;;;;;;;;;;;26.31;24.60;95016.34;6248575;28;19921;-67
2022/06/21 09:38:26;;;;;;;;;;;;;;;26.28;25.02;95017.66;6248334;28;20308;-68
2022/06/21 09:41:42;;;;;;;;;;;;;;;26.18;25.28;95025.56;6246897;28;19975;-67
2022/06/21 09:45:11;;;;;;;;;;;;;;;25.92;25.64;95038.56;6248214;28;19920;-66
2022/06/21 09:48:21;;;;;;;;;;;;;;;25.17;26.52;95038.59;6248203;28;20414;-66
2022/06/21 09:51:22;;;;;;;;;;;;;;;24.77;26.89;95044.63;6248791;28;19921;-68
2022/06/21 09:54:23;;;;;;;;;;;;;;;24.21;27.42;95041.34;6248261;28;20063;-66
2022/06/21 09:57:34;;;;;;;;;;;;;;;23.84;27.79;95041.47;6248111;28;19927;-66
2022/06/21 10:00:41;;;;;;;;;;;;;;;23.92;28.16;95043.84;6247931;28;20372;-67
2022/06/21 10:03:54;;;;;;;;;;;;;;;24.04;27.88;95045.75;6247657;28;19927;-67
2022/06/21 10:06:58;;;;;;;;;;;;;;;24.91;26.90;95035.31;6247469;28;19917;-68
2022/06/21 10:10:02;;;;;;;;;;;;;;;24.75;27.02;95047.56;6247752;28;19921;-66
2022/06/21 10:13:10;;;;;;;;;;;;;;;24.08;27.46;95031.59;6247646;28;19921;-68
2022/06/21 10:16:16;;;;;;;;;;;;;;;23.40;28.38;95037.22;6247517;28;19921;-68
2022/06/21 10:19:23;;;;;;;;;;;;;;;23.20;28.91;95051.66;6247390;28;19921;-68
2022/06/21 10:22:35;;;;;;;;;;;;;;;23.47;28.69;95040.66;6247463;28;20007;-68
2022/06/21 10:25:57;;;;;;;;;;;;;;;23.66;28.48;95044.94;6247361;28;20307;-68
2022/06/21 10:29:29;;;;;;;;;;;;;;;23.62;28.93;95049.13;6247185;28;19932;-68
2022/06/21 10:32:52;;;;;;;;;;;;;;;23.51;28.86;95041.84;6247359;28;20451;-67
2022/06/21 10:35:54;;;;;;;;;;;;;;;23.46;28.95;95047.06;6246643;28;20019;-67
2022/06/21 10:39:02;;;;;;;;;;;;;;;23.29;29.78;95036.91;6247153;28;20301;-67
2022/06/21 10:45:54;;;;;;;;;;;;;;;23.04;30.11;95049.56;6246925;28;19943;-68
2022/06/21 10:49:00;;;;;;;;;;;;;;;23.38;29.69;95064.25;6246162;28;19924;-67
2022/06/21 10:52:14;;;;;;;;;;;;;;;23.62;29.52;95049.13;6246715;28;19921;-67
2022/06/21 10:55:15;;;;;;;;;;;;;;;23.59;29.57;95057.63;6247327;28;19921;-67
2022/06/21 10:58:44;;;;;;;;;;;;;;;23.67;29.44;95041.22;6246467;28;19968;-67
2022/06/21 11:01:45;;;;;;;;;;;;;;;23.89;29.41;95038.06;6245216;28;19921;-67
2022/06/21 11:05:02;;;;;;;;;;;;;;;23.94;29.27;95048.97;6246384;28;20427;-68
2022/06/21 11:08:20;;;;;;;;;;;;;;;23.77;29.59;95056.00;6246820;28;19928;-67
2022/06/21 11:11:42;;;;;;;;;;;;;;;23.67;29.36;95057.34;6246056;28;19921;-67
2022/06/21 11:14:57;;;;;;;;;;;;;;;23.72;29.64;95046.78;6246170;28;19921;-67
2022/06/21 11:18:10;;;;;;;;;;;;;;;24.23;29.19;95087.63;6246079;28;20404;-67
2022/06/21 11:21:47;;;;;;;;;;;;;;;24.40;28.83;95055.53;6246158;28;20393;-68
2022/06/21 11:25:08;;;;;;;;;;;;;;;24.64;28.62;95056.44;6242407;28;19932;-67
2022/06/21 11:28:29;;;;;;;;;;;;;;;24.30;28.55;95068.72;6245648;28;19920;-67
2022/06/21 11:31:38;;;;;;;;;;;;;;;23.66;29.67;95070.97;6245777;28;20363;-68
2022/06/21 11:34:58;;;;;;;;;;;;;;;23.23;30.18;95072.69;6246274;28;19921;-68
2022/06/21 11:38:23;;;;;;;;;;;;;;;23.37;30.35;95072.56;6245523;28;19933;-68
2022/06/21 11:44:52;;;;;;;;;;;;;;;24.20;29.42;95066.56;6245845;28;20372;-67
2022/06/21 11:47:56;;;;;;;;;;;;;;;24.23;29.37;95094.88;6246107;28;19928;-68
2022/06/21 11:51:13;;;;;;;;;;;;;;;24.39;29.24;95092.34;6245503;28;19921;-68
2022/06/21 11:54:17;;;;;;;;;;;;;;;24.67;28.16;95099.00;6244079;28;19944;-67
2022/06/21 11:57:25;;;;;;;;;;;;;;;24.54;28.39;95091.97;6245470;28;19921;-68
2022/06/21 12:00:35;;;;;;;;;;;;;;;24.27;28.59;95114.88;6245540;28;19925;-67
2022/06/21 12:03:52;;;;;;;;;;;;;;;23.86;29.38;95108.34;6250734;28;19924;-67
2022/06/21 12:07:11;;;;;;;;;;;;;;;23.86;29.54;95111.03;6250284;28;19927;-67
2022/06/21 12:10:15;;;;;;;;;;;;;;;23.80;29.79;95110.09;6250417;28;19932;-68
2022/06/21 12:13:42;;;;;;;;;;;;;;;23.99;29.75;95129.69;6250268;28;20003;-68
2022/06/21 12:16:56;;;;;;;;;;;;;;;23.50;30.34;95126.91;6250036;28;19921;-68
2022/06/21 12:20:04;;;;;;;;;;;;;;;23.36;30.68;95124.59;6249766;28;19921;-67
2022/06/21 12:23:24;;;;;;;;;;;;;;;23.25;31.00;95118.91;6250576;28;19921;-68
2022/06/21 12:26:27;;;;;;;;;;;;;;;23.05;31.75;95112.91;6249971;28;19921;-68
2022/06/21 12:29:30;;;;;;;;;;;;;;;23.74;31.06;95127.91;6249651;28;19928;-67
2022/06/21 12:32:33;;;;;;;;;;;;;;;24.41;29.92;95124.38;6249491;28;19921;-67
2022/06/21 12:35:51;;;;;;;;;;;;;;;25.04;29.02;95131.91;6248688;28;19921;-69
2022/06/21 12:38:57;;;;;;;;;;;;;;;24.96;28.92;95121.50;6249692;28;19921;-67
2022/06/21 12:42:07;;;;;;;;;;;;;;;24.40;29.54;95126.25;6249486;28;20299;-68
2022/06/21 12:45:08;;;;;;;;;;;;;;;24.26;29.77;95129.34;6250054;28;19942;-67
2022/06/21 12:48:18;;;;;;;;;;;;;;;24.05;30.32;95118.03;6249408;28;19927;-67
2022/06/21 12:51:27;;;;;;;;;;;;;;;23.62;30.79;95118.94;6249547;28;19920;-67
2022/06/21 12:54:49;;;;;;;;;;;;;;;23.56;31.18;95132.44;6249098;28;19917;-67
2022/06/21 12:58:02;;;;;;;;;;;;;;;23.77;31.09;95121.28;6249190;28;19921;-69
2022/06/21 13:01:16;;;;;;;;;;;;;;;23.66;31.20;95128.19;6249092;28;19939;-68
2022/06/21 13:04:31;;;;;;;;;;;;;;;23.59;30.82;95135.50;6249358;28;19931;-67
2022/06/21 13:07:50;;;;;;;;;;;;;;;23.44;31.12;95132.34;6248672;28;19920;-67
2022/06/21 13:11:11;;;;;;;;;;;;;;;23.24;31.68;95136.06;6248765;28;19954;-67
2022/06/21 13:14:24;;;;;;;;;;;;;;;22.89;32.01;95150.97;6248423;28;20011;-67
2022/06/21 13:17:25;;;;;;;;;;;;;;;22.52;32.85;95140.91;6248691;28;19921;-67
2022/06/21 13:20:37;;;;;;;;;;;;;;;22.52;32.51;95129.38;6249013;28;19932;-67
2022/06/21 13:23:56;;;;;;;;;;;;;;;22.50;32.80;95123.41;6248567;28;19925;-68
2022/06/21 13:27:23;;;;;;;;;;;;;;;22.64;32.64;95128.44;6248653;28;20015;-68
2022/06/21 13:30:30;;;;;;;;;;;;;;;23.08;32.23;95160.75;6248291;28;19921;-68
2022/06/21 13:33:40;;;;;;;;;;;;;;;22.75;31.97;95129.63;6249194;28;19927;-68
2022/06/21 13:36:46;;;;;;;;;;;;;;;22.23;33.03;95145.00;6248165;28;19921;-68
2022/06/21 13:40:16;;;;;;;;;;;;;;;22.05;33.36;95136.81;6248489;28;20012;-68
2022/06/21 13:43:37;;;;;;;;;;;;;;;21.94;33.88;95123.09;6248940;28;20008;-69
2022/06/21 13:46:46;;;;;;;;;;;;;;;21.91;34.37;95123.50;6247969;28;20368;-69
2022/06/21 13:49:51;;;;;;;;;;;;;;;21.82;34.54;95114.06;6248310;28;19921;-68
2022/06/21 13:53:13;;;;;;;;;;;;;;;21.48;34.98;95134.75;6248018;28;19921;-70
2022/06/21 13:56:14;;;;;;;;;;;;;;;21.16;35.32;95135.63;6247957;28;19920;-68
2022/06/21 13:59:27;;;;;;;;;;;;;;;21.01;35.77;95123.28;6248397;28;19920;-68
2022/06/21 14:02:35;;;;;;;;;;;;;;;21.11;35.86;95119.38;6248033;28;19928;-68
2022/06/21 14:05:45;;;;;;;;;;;;;;;21.32;35.88;95123.66;6247904;28;19921;-68
2022/06/21 14:08:54;;;;;;;;;;;;;;;21.11;35.95;95116.69;6247795;28;19921;-68
2022/06/21 14:12:09;;;;;;;;;;;;;;;20.74;36.66;95125.13;6247580;28;19920;-70
2022/06/21 14:15:29;;;;;;;;;;;;;;;20.83;36.65;95115.06;6247486;28;19921;-68
2022/06/21 14:18:45;;;;;;;;;;;;;;;21.08;36.51;95110.72;6247449;28;19921;-68
2022/06/21 14:22:05;;;;;;;;;;;;;;;21.23;35.94;95120.38;6247430;28;19920;-68
2022/06/21 14:25:22;;;;;;;;;;;;;;;21.10;36.11;95131.09;6246316;28;20308;-68
2022/06/21 14:28:43;;;;;;;;;;;;;;;21.19;35.97;95129.84;6247484;28;20288;-68
2022/06/21 14:32:03;;;;;;;;;;;;;;;21.33;35.51;95130.66;6246527;28;20007;-69
2022/06/21 14:35:17;;;;;;;;;;;;;;;21.08;36.28;95132.13;6247542;28;19921;-68
2022/06/21 14:38:36;;;;;;;;;;;;;;;21.11;36.19;95119.38;6246758;28;19921;-68
2022/06/21 14:41:42;;;;;;;;;;;;;;;20.94;36.33;95106.41;6247076;28;20063;-68
2022/06/21 14:45:01;;;;;;;;;;;;;;;20.99;36.28;95109.28;6247320;28;19921;-69
2022/06/21 14:48:14;;;;;;;;;;;;;;;20.98;36.55;95096.97;6246899;28;19928;-68
2022/06/21 14:51:33;;;;;;;;;;;;;;;21.01;36.46;95096.56;6246707;28;19925;-68
2022/06/21 14:54:55;;;;;;;;;;;;;;;20.96;36.62;95082.97;6246238;28;19921;-68
2022/06/21 14:58:11;;;;;;;;;;;;;;;21.10;36.55;95093.66;6247023;28;19964;-67
2022/06/21 15:01:28;;;;;;;;;;;;;;;20.82;36.82;95089.38;6246349;28;19920;-68
2022/06/21 15:04:39;;;;;;;;;;;;;;;20.53;37.53;95103.97;6246529;28;19921;-69
2022/06/21 15:07:54;;;;;;;;;;;;;;;20.39;37.91;95076.38;6246592;28;20031;-69
2022/06/21 15:11:10;;;;;;;;;;;;;;;20.36;37.94;95079.47;6246483;28;19937;-68
2022/06/21 15:14:15;;;;;;;;;;;;;;;20.38;38.31;95053.34;6245997;28;20019;-69
2022/06/21 15:17:23;;;;;;;;;;;;;;;20.29;38.53;95078.63;6244023;28;19952;-68
2022/06/21 15:20:26;;;;;;;;;;;;;;;20.23;39.18;95060.75;6245752;28;19921;-68
2022/06/21 15:23:27;;;;;;;;;;;;;;;20.07;38.92;95077.97;6246211;28;19921;-67
2022/06/21 15:26:28;;;;;;;;;;;;;;;20.12;38.97;95091.53;6246582;28;19947;-69
2022/06/21 15:29:47;;;;;;;;;;;;;;;20.18;38.89;95091.56;6245505;28;19921;-69
2022/06/21 15:32:55;;;;;;;;;;;;;;;20.14;39.02;95082.31;6246033;28;20475;-68
2022/06/21 15:36:02;;;;;;;;;;;;;;;20.13;39.29;95096.69;6245782;28;19920;-69
2022/06/21 15:39:05;;;;;;;;;;;;;;;19.97;39.73;95107.72;6245787;28;19921;-67
2022/06/21 15:42:16;;;;;;;;;;;;;;;19.85;40.01;95096.00;6245933;28;20419;-68
2022/06/21 15:45:28;;;;;;;;;;;;;;;19.71;40.48;95117.28;6245918;28;19932;-67
2022/06/21 15:52:20;;;;;;;;;;;;;;;19.52;41.10;95139.31;6245808;28;20201;-69
2022/06/21 15:55:24;;;;;;;;;;;;;;;19.52;41.11;95161.50;6245463;28;20352;-69
2022/06/21 15:58:41;;;;;;;;;;;;;;;19.33;41.50;95162.19;6245697;28;19920;-68
2022/06/21 16:01:47;;;;;;;;;;;;;;;19.21;41.71;95172.56;6245650;28;19921;-67
2022/06/21 16:05:09;;;;;;;;;;;;;;;19.22;41.89;95176.91;6245492;28;19921;-69
2022/06/21 16:08:17;;;;;;;;;;;;;;;19.06;42.04;95178.00;6244054;28;19921;-68
2022/06/21 16:11:24;;;;;;;;;;;;;;;18.95;42.77;95180.38;6245159;28;19921;-68
2022/06/21 16:14:29;;;;;;;;;;;;;;;18.61;42.97;95184.56;6245245;28;19921;-67
2022/06/21 16:17:34;;;;;;;;;;;;;;;18.58;43.33;95200.94;6245600;28;19979;-68
2022/06/21 16:20:41;;;;;;;;;;;;;;;18.50;43.44;95193.06;6245414;28;19929;-68
2022/06/21 16:23:48;;;;;;;;;;;;;;;18.32;44.48;95202.31;6245510;28;19921;-68
2022/06/21 16:26:54;;;;;;;;;;;;;;;18.39;43.92;95207.69;6245768;28;19921;-67
2022/06/21 16:30:02;;;;;;;;;;;;;;;18.34;44.45;95204.75;6245164;28;19928;-68
2022/06/21 16:33:13;;;;;;;;;;;;;;;18.27;44.33;95210.03;6245260;28;20403;-68
2022/06/21 16:36:43;;;;;;;;;;;;;;;18.28;44.64;95206.34;6245244;28;19925;-68
2022/06/21 16:40:04;;;;;;;;;;;;;;;18.25;44.64;95220.03;6243127;28;20339;-68
2022/06/21 16:43:13;;;;;;;;;;;;;;;18.24;44.99;95221.06;6244552;28;19928;-67
2022/06/21 16:46:40;;;;;;;;;;;;;;;18.27;45.02;95225.19;6245303;28;19963;-68